Time;durP1;ratioP1;P1;durP2;ratioP2;P2;SDS_P1;SDS_P2;PMS_P1;PMS_P2;Temp;Humidity;BMP_temperature;BMP_pressure;BME280_temperature;BME280_humidity;BME280_pressure;Samples;Min_cycle;Max_cycle;Signal;HPM_P1;HPM_P2
2022/09/08 00:00:26;;;;;;;29.48;22.38;;;18.10;99.90;;;;;;5031813;28;20392;-67
2022/09/08 00:02:54;;;;;;;26.77;23.52;;;18.10;99.90;;;;;;5031563;28;20073;-67
2022/09/08 00:05:24;;;;;;;27.02;22.83;;;18.10;99.90;;;;;;5031271;28;20117;-68
2022/09/08 00:07:52;;;;;;;27.80;24.27;;;18.00;99.90;;;;;;5031921;28;20400;-68
2022/09/08 00:10:18;;;;;;;31.08;24.38;;;18.00;99.90;;;;;;5031702;28;20045;-67
2022/09/08 00:12:44;;;;;;;28.52;24.90;;;18.00;99.90;;;;;;5030313;28;20101;-68
2022/09/08 00:15:11;;;;;;;32.65;25.20;;;18.00;99.90;;;;;;5031285;28;20546;-68
2022/09/08 00:17:37;;;;;;;26.65;23.80;;;17.90;99.90;;;;;;5031525;28;20037;-67
2022/09/08 00:20:03;;;;;;;30.88;25.88;;;17.90;99.90;;;;;;5030438;28;20492;-67
2022/09/08 00:22:29;;;;;;;28.58;25.02;;;17.80;99.90;;;;;;5030237;28;20042;-68
2022/09/08 00:24:55;;;;;;;28.58;24.35;;;17.90;99.90;;;;;;5031330;28;20045;-68
2022/09/08 00:27:20;;;;;;;28.13;23.38;;;17.80;99.90;;;;;;5030376;28;20060;-68
2022/09/08 00:29:46;;;;;;;29.58;26.20;;;17.80;99.90;;;;;;5031593;28;20052;-68
2022/09/08 00:32:11;;;;;;;32.97;26.42;;;17.80;99.90;;;;;;5031271;28;20045;-68
2022/09/08 00:34:37;;;;;;;30.85;24.95;;;17.80;99.90;;;;;;5031405;28;20129;-68
2022/09/08 00:37:02;;;;;;;32.03;23.63;;;17.80;99.90;;;;;;5031543;28;20145;-67
2022/09/08 00:39:28;;;;;;;30.08;25.83;;;17.80;99.90;;;;;;5031399;28;20038;-68
2022/09/08 00:41:55;;;;;;;33.05;26.63;;;17.80;99.90;;;;;;5031197;28;20042;-68
2022/09/08 00:44:41;;;;;;;33.80;26.77;;;17.80;99.90;;;;;;5029973;28;20454;-67
2022/09/08 00:47:27;;;;;;;32.40;25.98;;;17.80;99.90;;;;;;5031602;28;20407;-68
2022/09/08 00:50:04;;;;;;;30.30;26.13;;;17.80;99.90;;;;;;5031545;28;20657;-68
2022/09/08 00:53:00;;;;;;;35.00;26.77;;;17.80;99.90;;;;;;5031252;28;20503;-68
2022/09/08 00:55:29;;;;;;;30.70;26.00;;;17.80;99.90;;;;;;5029198;28;20045;-68
2022/09/08 00:57:54;;;;;;;31.60;26.58;;;17.80;99.90;;;;;;5031394;28;20088;-68
2022/09/08 01:00:20;;;;;;;32.30;26.42;;;17.80;99.90;;;;;;5031303;28;20073;-67
2022/09/08 01:02:47;;;;;;;32.60;26.98;;;17.80;99.90;;;;;;5031074;28;20034;-68
2022/09/08 01:05:20;;;;;;;29.85;26.65;;;17.70;99.90;;;;;;5030855;28;20091;-68
2022/09/08 01:13:40;;;;;;;36.75;28.08;;;17.70;99.90;;;;;;5030979;28;20057;-68
2022/09/08 01:16:07;;;;;;;33.85;27.35;;;17.70;99.90;;;;;;5031434;28;20041;-68
2022/09/08 01:18:34;;;;;;;33.38;28.35;;;17.70;99.90;;;;;;5034694;28;20033;-68
2022/09/08 01:21:29;;;;;;;31.38;27.15;;;17.70;99.90;;;;;;5034670;28;20045;-67
2022/09/08 01:24:29;;;;;;;34.63;28.73;;;17.70;99.90;;;;;;5034158;28;20050;-67
2022/09/08 01:27:21;;;;;;;36.30;27.60;;;17.70;99.90;;;;;;5034565;28;20044;-68
2022/09/08 01:29:49;;;;;;;33.38;28.77;;;17.70;99.90;;;;;;5034722;28;20033;-68
2022/09/08 01:32:15;;;;;;;35.35;28.20;;;17.80;99.90;;;;;;5034238;28;20526;-68
2022/09/08 01:34:42;;;;;;;34.63;27.65;;;17.80;99.90;;;;;;5034058;28;20053;-68
2022/09/08 01:37:08;;;;;;;33.67;28.35;;;17.80;99.90;;;;;;5034249;28;20526;-68
2022/09/08 01:39:34;;;;;;;36.88;28.42;;;17.80;99.90;;;;;;5034136;28;20045;-68
2022/09/08 01:42:00;;;;;;;34.60;29.92;;;17.80;99.90;;;;;;5032906;28;20581;-67
2022/09/08 01:44:27;;;;;;;36.95;28.52;;;17.80;99.90;;;;;;5034052;28;20058;-68
2022/09/08 01:46:52;;;;;;;35.25;29.02;;;17.80;99.90;;;;;;5034070;28;20511;-67
2022/09/08 01:49:18;;;;;;;31.73;28.20;;;17.80;99.90;;;;;;5034228;28;20042;-68
2022/09/08 01:51:44;;;;;;;38.95;30.33;;;17.80;99.90;;;;;;5034057;28;20129;-67
2022/09/08 01:54:09;;;;;;;35.60;29.08;;;17.80;99.90;;;;;;5033612;28;20396;-68
2022/09/08 01:56:35;;;;;;;37.72;30.38;;;17.80;99.90;;;;;;5034163;28;20072;-68
2022/09/08 01:59:01;;;;;;;33.38;29.02;;;17.90;99.90;;;;;;5032673;28;20083;-68
2022/09/08 02:01:27;;;;;;;36.22;29.48;;;17.80;99.90;;;;;;5033887;28;20076;-68
2022/09/08 02:03:52;;;;;;;34.22;29.38;;;17.80;99.90;;;;;;5033538;28;20118;-67
2022/09/08 02:06:18;;;;;;;35.25;29.33;;;17.80;99.90;;;;;;5033897;28;20087;-68
2022/09/08 02:08:48;;;;;;;33.40;28.42;;;17.90;99.90;;;;;;5033605;28;20511;-68
2022/09/08 02:11:14;;;;;;;34.63;28.05;;;17.90;99.90;;;;;;5033877;28;20107;-68
2022/09/08 02:13:39;;;;;;;39.75;28.85;;;17.90;99.90;;;;;;5033671;28;20447;-67
2022/09/08 02:16:06;;;;;;;32.40;28.23;;;18.00;99.90;;;;;;5033579;28;20492;-67
2022/09/08 02:18:33;;;;;;;33.25;28.13;;;17.90;99.90;;;;;;5033686;28;20065;-68
2022/09/08 02:21:09;;;;;;;32.22;27.38;;;18.00;99.90;;;;;;5033485;28;20041;-67
2022/09/08 02:23:37;;;;;;;36.13;28.05;;;18.00;99.90;;;;;;5032302;28;20068;-68
2022/09/08 02:26:04;;;;;;;37.20;30.33;;;18.00;99.90;;;;;;5033254;28;20033;-67
2022/09/08 02:28:30;;;;;;;36.65;28.25;;;18.00;99.90;;;;;;5033042;28;20037;-68
2022/09/08 02:31:02;;;;;;;34.38;27.75;;;18.00;99.90;;;;;;5033244;28;20064;-67
2022/09/08 02:33:29;;;;;;;38.33;28.25;;;18.00;99.90;;;;;;5033233;28;20037;-67
2022/09/08 02:35:55;;;;;;;34.13;29.88;;;18.00;99.90;;;;;;5032815;28;20064;-68
2022/09/08 02:38:22;;;;;;;39.97;29.02;;;18.00;99.90;;;;;;5031801;28;20049;-68
2022/09/08 02:40:48;;;;;;;42.17;29.38;;;18.00;99.90;;;;;;5033044;28;20053;-68
2022/09/08 02:43:13;;;;;;;37.13;29.00;;;18.00;99.90;;;;;;5033051;28;20075;-68
2022/09/08 02:45:40;;;;;;;36.40;30.60;;;18.00;99.90;;;;;;5031422;28;20033;-67
2022/09/08 02:48:06;;;;;;;39.85;29.63;;;18.00;99.90;;;;;;5032999;28;20044;-68
2022/09/08 02:50:32;;;;;;;38.10;30.15;;;18.00;99.90;;;;;;5032840;28;20395;-67
2022/09/08 02:52:57;;;;;;;37.88;30.05;;;18.00;99.90;;;;;;5032943;28;20039;-68
2022/09/08 02:55:23;;;;;;;39.67;31.70;;;18.00;99.90;;;;;;5031489;28;20049;-68
2022/09/08 02:57:49;;;;;;;36.15;30.40;;;18.00;99.90;;;;;;5032737;28;20622;-67
2022/09/08 03:00:15;;;;;;;42.03;30.67;;;18.00;99.90;;;;;;5032826;28;20180;-68
2022/09/08 03:02:41;;;;;;;36.83;31.75;;;18.00;99.90;;;;;;5032569;28;20116;-68
2022/09/08 03:05:07;;;;;;;40.80;30.83;;;18.00;99.90;;;;;;5032175;28;20041;-68
2022/09/08 03:07:32;;;;;;;35.65;30.52;;;18.00;99.90;;;;;;5032578;28;20059;-68
2022/09/08 03:09:58;;;;;;;42.08;31.90;;;18.00;99.90;;;;;;5032529;28;20033;-68
2022/09/08 03:12:26;;;;;;;40.83;31.30;;;18.00;99.90;;;;;;5032546;28;20049;-68
2022/09/08 03:14:53;;;;;;;41.00;31.08;;;17.90;99.90;;;;;;5030898;28;20049;-68
2022/09/08 03:17:20;;;;;;;40.80;32.95;;;18.00;99.90;;;;;;5031228;28;20049;-68
2022/09/08 03:19:46;;;;;;;41.60;33.38;;;17.90;99.90;;;;;;5032193;28;20050;-68
2022/09/08 03:22:12;;;;;;;40.55;32.67;;;17.90;99.90;;;;;;5032307;28;20042;-68
2022/09/08 03:24:38;;;;;;;39.97;31.52;;;17.90;99.90;;;;;;5032028;28;20045;-68
2022/09/08 03:27:04;;;;;;;40.10;31.92;;;17.90;99.90;;;;;;5031308;28;20040;-68
2022/09/08 03:29:31;;;;;;;44.50;32.42;;;17.90;99.90;;;;;;5032304;28;20080;-68
2022/09/08 03:31:58;;;;;;;41.90;33.17;;;17.90;99.90;;;;;;5032092;28;20132;-68
2022/09/08 03:34:24;;;;;;;43.33;34.20;;;17.90;99.90;;;;;;5032064;28;20045;-68
2022/09/08 03:36:50;;;;;;;40.72;32.90;;;17.90;99.90;;;;;;5030767;28;20100;-68
2022/09/08 03:39:15;;;;;;;43.10;33.38;;;17.90;99.90;;;;;;5031694;28;20045;-68
2022/09/08 03:41:41;;;;;;;39.35;32.67;;;17.90;99.90;;;;;;5031981;28;20043;-68
2022/09/08 03:44:08;;;;;;;37.80;31.55;;;17.90;99.90;;;;;;5030439;28;20216;-68
2022/09/08 03:46:34;;;;;;;40.97;31.85;;;17.90;99.90;;;;;;5031875;28;20033;-67
2022/09/08 03:48:59;;;;;;;42.15;32.28;;;17.90;99.90;;;;;;5032182;28;20127;-67
2022/09/08 03:51:25;;;;;;;39.50;32.45;;;17.90;99.90;;;;;;5032029;28;20044;-68
2022/09/08 03:54:46;;;;;;;43.70;33.13;;;17.90;99.90;;;;;;5031665;28;20034;-68
2022/09/08 03:56:43;;;;;;;41.20;34.08;;;17.90;99.90;;;;;;5031663;28;20535;-68
2022/09/08 03:59:09;;;;;;;41.85;32.75;;;17.90;99.90;;;;;;5031757;28;20116;-68
2022/09/08 04:01:35;;;;;;;43.05;32.70;;;17.90;99.90;;;;;;5031604;28;20034;-68
2022/09/08 04:04:01;;;;;;;44.88;33.70;;;17.90;99.90;;;;;;5031549;28;20128;-67
2022/09/08 04:06:28;;;;;;;40.50;32.53;;;17.90;99.90;;;;;;5031876;28;20164;-68
2022/09/08 04:08:53;;;;;;;39.85;32.13;;;17.90;99.90;;;;;;5031573;28;20049;-68
2022/09/08 04:11:19;;;;;;;41.33;32.28;;;17.90;99.90;;;;;;5031718;28;20042;-68
2022/09/08 04:13:46;;;;;;;41.10;31.52;;;17.90;99.90;;;;;;5031213;28;20399;-68
2022/09/08 04:16:11;;;;;;;38.38;31.30;;;17.90;99.90;;;;;;5031906;28;20075;-68
2022/09/08 04:18:37;;;;;;;41.70;32.42;;;17.90;99.90;;;;;;5031768;28;20041;-68
2022/09/08 04:21:04;;;;;;;41.17;32.15;;;17.90;99.90;;;;;;5030395;28;20052;-68
2022/09/08 04:23:30;;;;;;;40.90;32.97;;;17.90;99.90;;;;;;5031421;28;20447;-67
2022/09/08 04:25:58;;;;;;;43.08;31.85;;;17.90;99.90;;;;;;5031291;28;20044;-68
2022/09/08 04:28:23;;;;;;;42.95;31.70;;;17.90;99.90;;;;;;5031189;28;20518;-68
2022/09/08 04:30:49;;;;;;;41.45;31.60;;;17.90;99.90;;;;;;5031507;28;20041;-67
2022/09/08 04:33:15;;;;;;;43.97;33.42;;;17.90;99.90;;;;;;5031437;28;20495;-68
2022/09/08 04:35:40;;;;;;;37.72;31.80;;;17.90;99.90;;;;;;5031343;28;20120;-68
2022/09/08 04:38:06;;;;;;;40.88;33.33;;;17.90;99.90;;;;;;5031609;28;20080;-68
2022/09/08 04:40:33;;;;;;;43.05;32.72;;;17.80;99.90;;;;;;5031451;28;20034;-68
2022/09/08 04:42:59;;;;;;;42.95;33.60;;;17.80;99.90;;;;;;5031445;28;20037;-68
2022/09/08 04:45:24;;;;;;;42.22;33.40;;;17.70;99.90;;;;;;5031026;28;20091;-68
2022/09/08 04:47:50;;;;;;;43.10;33.15;;;17.80;99.90;;;;;;5031366;28;20080;-68
2022/09/08 04:50:16;;;;;;;43.78;33.70;;;17.70;99.90;;;;;;5031291;28;20037;-67
2022/09/08 04:52:41;;;;;;;47.60;34.95;;;17.80;99.90;;;;;;5034542;28;20034;-68
2022/09/08 04:55:07;;;;;;;49.47;35.38;;;17.80;99.90;;;;;;5034874;28;20380;-68
2022/09/08 04:57:34;;;;;;;45.35;34.47;;;17.70;99.90;;;;;;5035019;28;20037;-68
2022/09/08 04:59:59;;;;;;;45.38;34.67;;;17.80;99.90;;;;;;5035120;28;20037;-68
2022/09/08 05:02:28;;;;;;;42.85;33.90;;;17.80;99.90;;;;;;5034778;28;20045;-68
2022/09/08 05:04:53;;;;;;;43.70;35.20;;;17.80;99.90;;;;;;5034591;28;20641;-68
2022/09/08 05:07:19;;;;;;;50.90;36.33;;;17.80;99.90;;;;;;5033527;28;20121;-68
2022/09/08 05:09:44;;;;;;;42.50;34.28;;;17.80;99.90;;;;;;5032113;28;20041;-68
2022/09/08 05:12:10;;;;;;;43.88;33.72;;;17.80;99.90;;;;;;5034832;28;20037;-68
2022/09/08 05:14:35;;;;;;;48.35;35.65;;;17.80;99.90;;;;;;5033427;28;20037;-68
2022/09/08 05:17:01;;;;;;;50.60;36.00;;;17.80;99.90;;;;;;5034649;28;20037;-68
2022/09/08 05:19:27;;;;;;;43.67;35.47;;;17.80;99.90;;;;;;5033595;28;20068;-68
2022/09/08 05:21:52;;;;;;;44.75;35.22;;;17.80;99.90;;;;;;5034690;28;20044;-68
2022/09/08 05:24:19;;;;;;;52.35;37.47;;;17.80;99.90;;;;;;5034346;28;20037;-68
2022/09/08 05:26:44;;;;;;;49.00;36.65;;;17.80;99.90;;;;;;5034473;28;20499;-68
2022/09/08 05:29:10;;;;;;;47.92;37.30;;;17.80;99.90;;;;;;5034245;28;20041;-68
2022/09/08 05:31:35;;;;;;;47.88;36.25;;;17.80;99.90;;;;;;5034358;28;20037;-68
2022/09/08 05:34:01;;;;;;;44.80;34.78;;;17.80;99.90;;;;;;5032810;28;20444;-67
2022/09/08 05:36:33;;;;;;;47.78;36.08;;;17.90;99.90;;;;;;5034473;28;20041;-68
2022/09/08 05:38:59;;;;;;;45.38;35.25;;;17.90;99.90;;;;;;5034381;28;20059;-68
2022/09/08 05:41:25;;;;;;;43.40;35.00;;;17.90;99.90;;;;;;5034307;28;20038;-68
2022/09/08 05:43:52;;;;;;;45.63;35.88;;;17.90;99.90;;;;;;5033821;28;20098;-68
2022/09/08 05:46:18;;;;;;;46.97;36.33;;;17.90;99.90;;;;;;5034078;28;20030;-68
2022/09/08 05:48:43;;;;;;;49.92;37.42;;;17.90;99.90;;;;;;5034330;28;20534;-68
2022/09/08 05:51:10;;;;;;;46.40;36.17;;;17.90;99.90;;;;;;5031465;28;20491;-67
2022/09/08 05:53:37;;;;;;;57.25;39.30;;;17.90;99.90;;;;;;5030898;28;20384;-69
2022/09/08 05:56:05;;;;;;;55.97;38.80;;;17.90;99.90;;;;;;5031584;28;20052;-69
2022/09/08 05:58:31;;;;;;;54.88;38.45;;;17.90;99.90;;;;;;5032729;28;20045;-68
2022/09/08 06:01:05;;;;;;;60.15;38.45;;;17.90;99.90;;;;;;5033360;28;20391;-67
2022/09/08 06:03:31;;;;;;;56.28;36.90;;;17.70;99.90;;;;;;5032964;28;20041;-68
2022/09/08 06:06:05;;;;;;;23.10;13.30;;;17.60;99.90;;;;;;5029341;28;20052;-68
2022/09/08 06:08:31;;;;;;;19.88;11.88;;;17.50;99.90;;;;;;5029443;28;20037;-67
2022/09/08 06:10:57;;;;;;;19.20;13.35;;;17.50;99.90;;;;;;5030683;28;20049;-67
2022/09/08 06:13:23;;;;;;;19.92;15.20;;;17.50;99.90;;;;;;5029941;28;20478;-68
2022/09/08 06:15:49;;;;;;;20.75;14.25;;;17.50;99.90;;;;;;5029440;28;20403;-70
2022/09/08 06:18:16;;;;;;;24.20;13.80;;;17.50;99.90;;;;;;5032014;28;20493;-70
2022/09/08 06:20:43;;;;;;;26.00;17.75;;;17.40;99.90;;;;;;5032042;28;20407;-71
2022/09/08 06:23:08;;;;;;;29.23;19.27;;;17.40;99.90;;;;;;5015342;28;20468;-70
2022/09/08 06:25:42;;;;;;;30.00;21.88;;;17.50;99.90;;;;;;5031812;28;20128;-70
2022/09/08 06:28:23;;;;;;;38.13;25.05;;;17.40;99.90;;;;;;5032481;28;20040;-70
2022/09/08 06:30:52;;;;;;;40.00;26.20;;;17.40;99.90;;;;;;5032215;28;20091;-70
2022/09/08 06:33:28;;;;;;;44.75;31.15;;;17.50;99.90;;;;;;5030895;28;20044;-70
2022/09/08 06:36:16;;;;;;;41.17;31.25;;;17.40;99.90;;;;;;5032125;28;20049;-70
2022/09/08 06:38:53;;;;;;;50.78;35.85;;;17.50;99.90;;;;;;5031167;28;20049;-71
2022/09/08 06:41:24;;;;;;;53.53;38.30;;;17.50;99.90;;;;;;5033266;28;20053;-71
2022/09/08 06:44:03;;;;;;;53.42;38.90;;;17.50;99.90;;;;;;5031393;28;20087;-71
2022/09/08 06:46:37;;;;;;;50.88;38.65;;;17.50;99.90;;;;;;5033278;28;20037;-71
2022/09/08 06:49:03;;;;;;;54.28;39.15;;;17.50;99.90;;;;;;5033130;28;20041;-70
2022/09/08 06:51:28;;;;;;;55.33;40.75;;;17.40;99.90;;;;;;5032838;28;20041;-70
2022/09/08 06:54:09;;;;;;;57.17;40.15;;;17.40;99.90;;;;;;5032569;28;20116;-70
2022/09/08 06:57:04;;;;;;;55.40;39.15;;;17.50;99.90;;;;;;5033064;28;20044;-70
2022/09/08 06:59:42;;;;;;;52.58;36.00;;;17.50;99.90;;;;;;5032977;28;20089;-70
2022/09/08 07:02:51;;;;;;;47.88;34.10;;;17.50;99.90;;;;;;5032595;28;20653;-70
2022/09/08 07:05:45;;;;;;;44.75;31.90;;;17.50;99.90;;;;;;5028005;28;20053;-70
2022/09/08 07:08:35;;;;;;;42.80;32.88;;;17.40;99.90;;;;;;5032537;28;20045;-70
2022/09/08 07:11:21;;;;;;;44.67;31.27;;;17.40;99.90;;;;;;5029446;28;20126;-70
2022/09/08 07:14:33;;;;;;;39.92;29.80;;;17.40;99.90;;;;;;5030935;28;20042;-70
2022/09/08 07:17:32;;;;;;;39.20;29.33;;;17.50;99.90;;;;;;4952570;28;20054;-71
2022/09/08 07:19:58;;;;;;;40.25;28.15;;;17.50;99.90;;;;;;4952396;28;20085;-71
2022/09/08 07:22:34;;;;;;;41.63;28.90;;;17.40;99.90;;;;;;4968897;28;20078;-71
2022/09/08 07:25:20;;;;;;;39.38;28.67;;;17.50;99.90;;;;;;4954205;28;20126;-70
2022/09/08 07:27:50;;;;;;;39.63;26.88;;;17.50;99.90;;;;;;4970804;28;20537;-70
2022/09/08 07:30:18;;;;;;;40.80;29.45;;;17.50;99.90;;;;;;4971242;28;20386;-70
2022/09/08 07:32:47;;;;;;;39.63;27.63;;;17.50;99.90;;;;;;4955103;28;20058;-69
2022/09/08 07:35:25;;;;;;;44.75;29.17;;;17.50;99.90;;;;;;4954688;28;20050;-70
2022/09/08 07:37:53;;;;;;;40.97;30.35;;;17.50;99.90;;;;;;4971086;28;20053;-70
2022/09/08 07:40:21;;;;;;;48.85;29.27;;;17.40;99.90;;;;;;4953375;28;20417;-70
2022/09/08 07:42:57;;;;;;;37.42;28.65;;;17.50;99.90;;;;;;4969203;28;20039;-70
2022/09/08 07:45:37;;;;;;;39.38;29.67;;;17.50;99.90;;;;;;4967602;28;20169;-70
2022/09/08 07:48:34;;;;;;;42.92;29.95;;;17.50;99.90;;;;;;4968476;28;20046;-70
2022/09/08 07:51:14;;;;;;;42.22;29.80;;;17.60;99.90;;;;;;4948909;28;20051;-71
2022/09/08 07:53:58;;;;;;;39.65;30.02;;;17.50;99.90;;;;;;5014057;28;20507;-69
2022/09/08 07:56:40;;;;;;;43.13;32.33;;;17.50;99.90;;;;;;5028063;28;20045;-68
2022/09/08 07:59:14;;;;;;;44.22;31.45;;;17.60;99.90;;;;;;5030396;28;20048;-69
2022/09/08 08:02:16;;;;;;;46.78;32.33;;;17.60;99.90;;;;;;5030367;28;20049;-69
2022/09/08 08:05:00;;;;;;;46.90;35.00;;;17.60;99.90;;;;;;5030207;28;20509;-69
2022/09/08 08:07:34;;;;;;;51.33;34.30;;;17.60;99.90;;;;;;5030546;28;20071;-68
2022/09/08 08:10:16;;;;;;;46.95;34.45;;;17.60;99.90;;;;;;5030406;28;20045;-68
2022/09/08 08:13:05;;;;;;;48.85;35.65;;;17.60;99.90;;;;;;5030476;28;20049;-68
2022/09/08 08:15:36;;;;;;;47.17;34.65;;;17.60;99.90;;;;;;5031500;28;20052;-68
2022/09/08 08:18:20;;;;;;;49.58;37.10;;;17.60;99.90;;;;;;5031730;28;20042;-69
2022/09/08 08:20:59;;;;;;;56.15;39.50;;;17.60;99.90;;;;;;5031657;28;20092;-68
2022/09/08 08:23:48;;;;;;;48.28;33.83;;;17.60;99.90;;;;;;5030203;28;20037;-68
2022/09/08 08:26:35;;;;;;;47.70;33.83;;;17.60;99.90;;;;;;5033196;28;20496;-68
2022/09/08 08:29:29;;;;;;;39.78;29.38;;;17.70;99.90;;;;;;5034384;28;20107;-68
2022/09/08 08:32:38;;;;;;;36.65;25.88;;;17.70;99.90;;;;;;5035362;28;20041;-68
2022/09/08 08:35:07;;;;;;;35.45;23.55;;;17.70;99.90;;;;;;4957857;28;20058;-68
2022/09/08 08:37:38;;;;;;;33.47;23.83;;;17.70;99.90;;;;;;5027087;28;20079;-69
2022/09/08 08:40:23;;;;;;;38.33;24.95;;;17.80;99.90;;;;;;5034358;28;20396;-69
2022/09/08 08:43:12;;;;;;;34.83;23.63;;;17.70;99.90;;;;;;5034274;28;20041;-69
2022/09/08 08:46:01;;;;;;;32.20;23.05;;;17.80;99.90;;;;;;5033698;28;20046;-69
2022/09/08 08:48:42;;;;;;;30.17;22.80;;;17.80;99.90;;;;;;5035146;28;20546;-69
2022/09/08 08:51:16;;;;;;;35.40;21.52;;;17.80;99.90;;;;;;5035449;28;20065;-69
2022/09/08 08:53:56;;;;;;;24.60;19.95;;;17.80;99.90;;;;;;5034251;28;20100;-69
2022/09/08 08:56:32;;;;;;;28.95;19.33;;;17.80;99.90;;;;;;5034103;28;20081;-69
2022/09/08 08:59:18;;;;;;;25.15;19.60;;;17.80;99.90;;;;;;5033740;28;20037;-69
2022/09/08 09:02:15;;;;;;;32.72;19.77;;;17.90;99.90;;;;;;5033590;28;20049;-69
2022/09/08 09:04:53;;;;;;;22.60;16.80;;;17.90;99.90;;;;;;5025445;28;20416;-69
2022/09/08 09:08:00;;;;;;;17.27;12.73;;;17.90;99.90;;;;;;5033730;28;20052;-69
2022/09/08 09:11:21;;;;;;;15.70;11.32;;;17.90;99.90;;;;;;5033537;28;20044;-69
2022/09/08 09:14:03;;;;;;;13.70;10.00;;;17.90;99.90;;;;;;4990211;28;20566;-71
2022/09/08 09:16:37;;;;;;;15.40;9.43;;;18.00;99.90;;;;;;5032603;28;20458;-69
2022/09/08 09:19:42;;;;;;;16.27;9.85;;;18.00;99.90;;;;;;5033866;28;20077;-69
2022/09/08 09:22:37;;;;;;;11.00;9.18;;;18.00;99.90;;;;;;5030855;28;20061;-69
2022/09/08 09:25:28;;;;;;;12.35;8.90;;;18.00;99.90;;;;;;5028913;28;20491;-70
2022/09/08 09:27:59;;;;;;;11.70;9.32;;;17.90;99.90;;;;;;5034588;28;20521;-69
2022/09/08 09:30:54;;;;;;;13.55;8.85;;;18.00;99.90;;;;;;5034540;28;20124;-73
2022/09/08 09:33:20;;;;;;;9.15;7.70;;;18.00;99.90;;;;;;5034314;28;20045;-68
2022/09/08 09:35:48;;;;;;;11.77;8.68;;;17.90;99.90;;;;;;5033965;28;20041;-68
2022/09/08 09:38:46;;;;;;;11.48;8.98;;;17.90;99.90;;;;;;5033687;28;20048;-68
2022/09/08 09:41:37;;;;;;;10.45;8.63;;;18.00;99.90;;;;;;5031802;28;20038;-68
2022/09/08 09:44:19;;;;;;;10.20;7.97;;;17.90;99.90;;;;;;5034206;28;20101;-68
2022/09/08 09:47:14;;;;;;;8.43;6.90;;;17.90;99.90;;;;;;5034255;28;20418;-68
2022/09/08 09:49:57;;;;;;;8.15;6.68;;;17.80;99.90;;;;;;5032712;28;20037;-68
2022/09/08 09:52:44;;;;;;;12.48;6.60;;;17.80;99.90;;;;;;5036915;28;20040;-69
2022/09/08 09:55:26;;;;;;;7.88;5.07;;;17.80;99.90;;;;;;5033922;28;20041;-69
2022/09/08 09:58:22;;;;;;;6.65;4.07;;;17.80;99.90;;;;;;5033992;28;20046;-71
2022/09/08 10:01:06;;;;;;;5.28;3.65;;;17.90;99.90;;;;;;5032703;28;20053;-71
2022/09/08 10:03:57;;;;;;;5.57;3.15;;;17.80;99.90;;;;;;5035623;28;20128;-71
2022/09/08 10:06:41;;;;;;;6.82;3.20;;;17.70;99.90;;;;;;5033785;28;20691;-68
2022/09/08 10:09:56;;;;;;;5.10;2.40;;;17.70;99.90;;;;;;5033992;28;20044;-69
2022/09/08 10:13:13;;;;;;;7.95;3.72;;;17.70;99.90;;;;;;5014097;28;20088;-68
2022/09/08 10:16:02;;;;;;;7.93;3.92;;;17.70;99.90;;;;;;4991298;28;20132;-69
2022/09/08 10:18:43;;;;;;;8.95;3.45;;;17.70;99.90;;;;;;4991912;28;20042;-69
2022/09/08 10:21:38;;;;;;;3.88;3.13;;;17.60;99.90;;;;;;4991937;28;20046;-69
2022/09/08 10:24:32;;;;;;;5.68;3.58;;;17.70;99.90;;;;;;4991703;28;20109;-68
2022/09/08 10:27:16;;;;;;;6.53;3.35;;;17.60;99.90;;;;;;4974943;28;20066;-69
2022/09/08 10:30:00;;;;;;;7.03;3.53;;;17.60;99.90;;;;;;4991654;28;20436;-68
2022/09/08 10:32:57;;;;;;;6.60;3.45;;;17.70;99.90;;;;;;4991654;28;20496;-69
2022/09/08 10:35:37;;;;;;;4.60;3.40;;;17.60;99.90;;;;;;4991382;28;20480;-69
2022/09/08 10:38:41;;;;;;;6.40;4.40;;;17.70;99.90;;;;;;4991569;28;20158;-69
2022/09/08 10:41:36;;;;;;;5.70;4.22;;;17.60;99.90;;;;;;4991732;28;20065;-69
2022/09/08 10:44:34;;;;;;;10.25;4.57;;;17.60;99.90;;;;;;4990981;28;20077;-69
2022/09/08 10:47:29;;;;;;;6.43;4.28;;;17.60;99.90;;;;;;4987898;28;20050;-69
2022/09/08 10:50:02;;;;;;;5.85;4.45;;;17.60;99.90;;;;;;4990201;28;20049;-70
2022/09/08 10:52:30;;;;;;;6.32;3.97;;;17.60;99.90;;;;;;5012502;28;20038;-69
2022/09/08 10:55:27;;;;;;;4.93;4.43;;;17.60;99.90;;;;;;5011184;28;20037;-69
2022/09/08 10:58:00;;;;;;;8.98;4.90;;;17.60;99.90;;;;;;5013142;28;20120;-69
2022/09/08 11:00:35;;;;;;;5.68;4.70;;;17.60;99.90;;;;;;5013038;28;20057;-69
2022/09/08 11:03:22;;;;;;;5.95;4.82;;;17.70;99.90;;;;;;5020046;28;20045;-69
2022/09/08 11:05:49;;;;;;;6.15;4.50;;;17.70;99.90;;;;;;5031458;28;20688;-69
2022/09/08 11:08:52;;;;;;;5.50;4.63;;;17.70;99.90;;;;;;5032433;28;20069;-69
2022/09/08 11:11:27;;;;;;;5.63;4.38;;;17.70;99.90;;;;;;5029119;28;20076;-69
2022/09/08 11:14:39;;;;;;;8.02;4.65;;;17.70;99.90;;;;;;5028138;28;20037;-70
2022/09/08 11:17:24;;;;;;;6.75;5.00;;;17.70;99.90;;;;;;5031209;28;20115;-69
2022/09/08 11:20:02;;;;;;;4.95;4.47;;;17.70;99.90;;;;;;5031788;28;20047;-69
2022/09/08 11:23:11;;;;;;;6.25;5.00;;;17.70;99.90;;;;;;5030709;28;20124;-69
2022/09/08 11:25:53;;;;;;;8.88;5.00;;;17.70;99.90;;;;;;5023413;28;20045;-69
2022/09/08 11:28:28;;;;;;;9.23;6.32;;;17.70;99.90;;;;;;5030308;28;20395;-69
2022/09/08 11:31:22;;;;;;;6.50;5.22;;;17.70;99.90;;;;;;5029655;28;20034;-69
2022/09/08 11:34:09;;;;;;;8.45;6.07;;;17.80;99.90;;;;;;5029868;28;20041;-69
2022/09/08 11:37:08;;;;;;;9.55;5.88;;;17.80;99.90;;;;;;5029516;28;20479;-69
2022/09/08 11:39:52;;;;;;;9.35;5.97;;;17.80;99.90;;;;;;5029326;28;20083;-69
2022/09/08 11:42:55;;;;;;;9.77;6.28;;;17.80;99.90;;;;;;5029743;28;20030;-69
2022/09/08 11:45:40;;;;;;;5.75;5.13;;;17.80;99.90;;;;;;5030051;28;20485;-68
2022/09/08 11:48:27;;;;;;;10.15;5.93;;;17.80;99.90;;;;;;5030774;28;20037;-69
2022/09/08 11:51:07;;;;;;;9.05;6.03;;;17.90;99.90;;;;;;5028670;28;20040;-69
2022/09/08 11:53:54;;;;;;;8.70;6.43;;;17.90;99.90;;;;;;5028620;28;20042;-69
2022/09/08 11:56:50;;;;;;;7.93;5.97;;;17.90;99.90;;;;;;5031993;28;20038;-69
2022/09/08 11:59:15;;;;;;;11.63;6.75;;;17.90;99.90;;;;;;5025007;28;20064;-69
2022/09/08 12:01:50;;;;;;;12.88;7.72;;;17.90;99.90;;;;;;5031445;28;20041;-69
2022/09/08 12:04:31;;;;;;;11.40;7.15;;;18.00;99.90;;;;;;5030181;28;20048;-69
2022/09/08 12:07:45;;;;;;;9.77;6.93;;;18.00;99.90;;;;;;5030780;28;20037;-68
2022/09/08 12:10:40;;;;;;;9.50;7.03;;;18.00;99.90;;;;;;5026902;28;20642;-68
2022/09/08 12:13:21;;;;;;;9.52;6.43;;;18.00;99.90;;;;;;5031405;28;20050;-68
2022/09/08 12:15:58;;;;;;;9.70;7.20;;;18.10;99.90;;;;;;5030142;28;20041;-69
2022/09/08 12:19:02;;;;;;;8.60;7.47;;;18.10;99.90;;;;;;5030368;28;20073;-69
2022/09/08 12:21:46;;;;;;;10.77;6.82;;;18.10;99.90;;;;;;5030264;28;20088;-68
2022/09/08 12:24:42;;;;;;;9.23;7.30;;;18.20;99.90;;;;;;5029998;28;20084;-69
2022/09/08 12:27:39;;;;;;;9.25;7.97;;;18.10;99.90;;;;;;5031488;28;20468;-69
2022/09/08 12:30:20;;;;;;;11.23;8.43;;;18.20;99.90;;;;;;5031708;28;20037;-69
2022/09/08 12:33:05;;;;;;;11.55;8.25;;;18.30;99.90;;;;;;5031491;28;20111;-69
2022/09/08 12:36:19;;;;;;;11.55;8.75;;;18.30;99.90;;;;;;5029900;28;20072;-68
2022/09/08 12:39:22;;;;;;;13.77;8.60;;;18.30;99.90;;;;;;5012545;28;20064;-69
2022/09/08 12:42:32;;;;;;;11.00;9.25;;;18.40;99.90;;;;;;5011663;28;20578;-69
2022/09/08 12:45:19;;;;;;;12.25;9.50;;;18.40;99.90;;;;;;5029719;28;20082;-69
2022/09/08 12:47:54;;;;;;;11.20;8.77;;;18.50;99.90;;;;;;5030337;28;20192;-69
2022/09/08 12:51:09;;;;;;;13.88;10.10;;;18.50;99.90;;;;;;5031298;28;20492;-69
2022/09/08 12:54:11;;;;;;;15.00;9.65;;;18.60;99.90;;;;;;4971656;28;20534;-69
2022/09/08 12:56:51;;;;;;;12.50;10.25;;;18.60;99.90;;;;;;5006639;28;20057;-69
2022/09/08 12:59:33;;;;;;;15.85;11.50;;;18.60;99.90;;;;;;5031423;28;20056;-69
2022/09/08 13:02:19;;;;;;;13.23;10.38;;;18.60;99.90;;;;;;5030977;28;20496;-68
2022/09/08 13:05:15;;;;;;;13.85;11.20;;;18.60;99.90;;;;;;5029509;28;20068;-70
2022/09/08 13:07:52;;;;;;;16.58;11.57;;;18.60;99.90;;;;;;5031106;28;20558;-69
2022/09/08 13:10:44;;;;;;;13.30;10.75;;;18.70;99.90;;;;;;5031017;28;20048;-69
2022/09/08 13:13:30;;;;;;;17.07;11.37;;;18.70;99.90;;;;;;5033203;28;20041;-69
2022/09/08 13:16:10;;;;;;;15.30;11.75;;;18.80;99.90;;;;;;5034665;28;20045;-68
2022/09/08 13:18:47;;;;;;;14.32;11.20;;;18.80;99.90;;;;;;5034676;28;20045;-69
2022/09/08 13:21:23;;;;;;;17.23;12.35;;;18.80;99.90;;;;;;5033313;28;20047;-68
2022/09/08 13:23:54;;;;;;;15.90;11.43;;;18.90;99.90;;;;;;5034057;28;20053;-68